To NAV CANADA Home Page Login to a new session Search on AWWS site Feedback and Comments Disclaimer Vers la page française équivalente Tips FAQ What's new on the site To the Forecasts and Observations / NOTAM section To "File a Flight Plan" website Publications and other links Update of the User's profile FIC Telephone Numbers My Weather Data Folder Route Weather Data Regional Weather Data Local Weather Data To the Forecasts and Observations / NOTAM section
Request Generated 03/04/2015 at 00:05:54 UTC . Weather information available at that time is displayed.

METAR/TAF

EDMONTON/EDMONTON INTL/AB    

METAR CYEG 040000Z 36010G17KT 15SM SKC M11/M19 A3013 RMK SLP264=
METAR CYEG 032300Z 33014G22KT 15SM SKC M10/M20 A3013 RMK SLP265=
METAR CYEG 032200Z 32010KT 15SM SKC M10/M20 A3012 RMK SLP260=

TAF CYEG 032338Z 0400/0424 33012G22KT P6SM SKC
BECMG 0401/0403 36006KT
BECMG 0406/0408 15008KT
RMK NXT FCST BY 040300Z=
Your time UTC time
Weather data provided by Environment Canada and NAV CANADA